Time;durP1;ratioP1;P1;durP2;ratioP2;P2;SDS_P1;SDS_P2;PMS_P1;PMS_P2;Temp;Humidity;BMP_temperature;BMP_pressure;BME280_temperature;BME280_humidity;BME280_pressure;Samples;Min_cycle;Max_cycle;Signal;HPM_P1;HPM_P2
2022/08/25 00:01:29;;;;;;;16.80;6.13;;;;;;;31.46;23.12;100398.53;5053472;28;20095;-70
2022/08/25 00:03:56;;;;;;;19.67;6.05;;;;;;;31.22;23.51;100397.41;5035554;28;20416;-69
2022/08/25 00:06:22;;;;;;;21.33;6.50;;;;;;;31.10;23.72;100402.34;5036168;28;20108;-69
2022/08/25 00:08:48;;;;;;;20.20;5.82;;;;;;;31.19;23.86;100400.72;5052477;28;20357;-69
2022/08/25 00:11:20;;;;;;;22.70;6.53;;;;;;;31.41;23.69;100389.47;5051938;28;20135;-69
2022/08/25 00:13:48;;;;;;;25.00;7.10;;;;;;;31.51;24.34;100398.53;5035486;28;20068;-69
2022/08/25 00:16:16;;;;;;;26.58;6.70;;;;;;;31.07;24.55;100403.75;5019083;28;20048;-69
2022/08/25 00:18:44;;;;;;;20.58;6.68;;;;;;;30.96;24.42;100406.72;5002549;28;20040;-69
2022/08/25 00:21:11;;;;;;;17.73;6.78;;;;;;;30.96;25.67;100402.06;5018812;28;20048;-69
2022/08/25 00:23:37;;;;;;;23.02;7.00;;;;;;;30.72;25.16;100391.84;5035341;28;20115;-68
2022/08/25 00:26:03;;;;;;;18.73;6.78;;;;;;;30.58;26.52;100383.34;4986043;28;20522;-68
2022/08/25 00:28:29;;;;;;;27.02;7.30;;;;;;;30.43;26.61;100390.69;5035119;28;20073;-68
2022/08/25 00:30:57;;;;;;;19.98;7.15;;;;;;;30.34;27.54;100400.50;5035204;28;20044;-69
2022/08/25 00:33:25;;;;;;;22.73;7.45;;;;;;;30.27;28.06;100402.69;5051902;28;20045;-69
2022/08/25 00:35:51;;;;;;;25.65;7.10;;;;;;;30.23;27.31;100385.13;5018672;28;20037;-69
2022/08/25 00:38:17;;;;;;;28.05;9.25;;;;;;;30.27;29.65;100392.56;5051556;28;20072;-70
2022/08/25 00:40:44;;;;;;;26.73;10.50;;;;;;;30.22;30.33;100395.25;5018603;28;20152;-70
2022/08/25 00:43:10;;;;;;;15.73;6.10;;;;;;;29.98;26.47;100387.72;5034940;28;20128;-69
2022/08/25 00:45:39;;;;;;;30.20;7.82;;;;;;;30.05;27.50;100400.09;5018093;28;20123;-69
2022/08/25 00:48:05;;;;;;;24.45;8.95;;;;;;;29.96;29.82;100396.19;5018313;28;20144;-68
2022/08/25 00:50:33;;;;;;;20.63;7.95;;;;;;;29.96;28.16;100395.38;5034927;28;20135;-69
2022/08/25 00:53:03;;;;;;;17.05;8.35;;;;;;;30.02;29.07;100394.31;5051415;28;20053;-68
2022/08/25 00:55:35;;;;;;;18.25;6.03;;;;;;;29.99;25.46;100387.44;5018047;28;20070;-68
2022/08/25 00:58:10;;;;;;;16.30;6.55;;;;;;;30.22;27.98;100394.44;5034633;28;20045;-68
2022/08/25 01:00:39;;;;;;;20.25;6.68;;;;;;;30.24;26.86;100398.56;5050957;28;20056;-68
2022/08/25 01:03:06;;;;;;;15.73;5.05;;;;;;;30.21;25.22;100393.63;5051305;28;20036;-69
2022/08/25 01:05:32;;;;;;;17.70;5.70;;;;;;;30.25;25.41;100400.22;5034297;28;20051;-68
2022/08/25 01:08:01;;;;;;;12.18;4.90;;;;;;;30.37;24.51;100398.06;5018183;28;20041;-69
2022/08/25 01:10:27;;;;;;;14.63;6.13;;;;;;;30.47;25.88;100397.28;5034563;28;20045;-69
2022/08/25 01:13:00;;;;;;;27.40;9.82;;;;;;;30.57;28.84;100387.16;5034642;28;20140;-69
2022/08/25 01:15:26;;;;;;;13.55;5.85;;;;;;;30.32;25.06;100380.78;5034792;28;20492;-69
2022/08/25 01:17:54;;;;;;;14.73;5.68;;;;;;;30.42;26.66;100399.97;5001692;28;20052;-70
2022/08/25 01:20:23;;;;;;;28.42;9.70;;;;;;;30.41;27.76;100396.44;5051022;28;20109;-69
2022/08/25 01:22:52;;;;;;;18.58;5.97;;;;;;;30.48;25.75;100386.03;5033998;28;20036;-69
2022/08/25 01:25:45;;;;;;;22.98;10.30;;;;;;;30.49;27.00;100387.66;5051914;28;20052;-69
2022/08/25 01:28:11;;;;;;;14.90;6.80;;;;;;;30.35;27.20;100388.47;5017525;28;20577;-70
2022/08/25 01:30:36;;;;;;;16.67;5.60;;;;;;;30.34;25.08;100393.09;5017548;28;20106;-69
2022/08/25 01:33:06;;;;;;;19.75;6.20;;;;;;;30.44;26.05;100386.84;5017451;28;20131;-69
2022/08/25 01:35:33;;;;;;;11.35;4.60;;;;;;;30.41;24.79;100387.38;5051730;28;20049;-69
2022/08/25 01:38:00;;;;;;;20.45;7.97;;;;;;;30.47;26.72;100397.28;5050144;28;20093;-69
2022/08/25 01:40:26;;;;;;;12.32;5.57;;;;;;;30.31;25.50;100390.06;5033953;28;20102;-69
2022/08/25 01:43:01;;;;;;;17.40;5.93;;;;;;;30.34;25.60;100395.00;5017483;28;20040;-69
2022/08/25 01:45:27;;;;;;;25.02;10.77;;;;;;;30.12;29.55;100383.41;5033941;28;20037;-69
2022/08/25 01:47:53;;;;;;;21.70;7.07;;;;;;;30.02;27.69;100394.31;5000963;28;20573;-69
2022/08/25 01:50:19;;;;;;;16.58;6.45;;;;;;;29.97;27.70;100391.56;5050071;28;20071;-69
2022/08/25 01:52:55;;;;;;;21.60;9.27;;;;;;;29.91;29.46;100382.47;5033630;28;20083;-69
2022/08/25 01:55:21;;;;;;;32.05;10.23;;;;;;;29.85;30.92;100388.19;5033482;28;20505;-69
2022/08/25 01:57:47;;;;;;;10.35;5.88;;;;;;;29.70;27.82;100388.09;5017231;28;20136;-69
2022/08/25 02:00:14;;;;;;;15.85;6.82;;;;;;;29.83;29.30;100401.34;5050894;28;20119;-69
2022/08/25 02:02:45;;;;;;;15.70;6.97;;;;;;;29.64;28.51;100400.94;5032966;28;20051;-68
2022/08/25 02:05:12;;;;;;;15.05;5.82;;;;;;;29.71;28.71;100400.72;5047813;28;20405;-69
2022/08/25 02:07:39;;;;;;;19.58;6.10;;;;;;;29.67;26.70;100399.59;5047797;28;20041;-70
2022/08/25 02:10:06;;;;;;;13.70;5.32;;;;;;;29.67;26.50;100399.59;4997887;28;20143;-69
2022/08/25 02:12:32;;;;;;;11.65;5.00;;;;;;;29.68;25.94;100401.25;5049020;28;20127;-70
2022/08/25 02:15:18;;;;;;;10.85;5.80;;;;;;;29.58;26.87;100397.31;5006893;28;20083;-69
2022/08/25 02:17:44;;;;;;;18.17;7.53;;;;;;;29.62;29.54;100403.09;5031835;28;20052;-69
2022/08/25 02:20:10;;;;;;;10.90;5.47;;;;;;;29.50;27.06;100397.81;5016624;28;20107;-69
2022/08/25 02:22:36;;;;;;;11.73;5.82;;;;;;;29.63;27.06;100407.50;5016771;28;20467;-69
2022/08/25 02:25:02;;;;;;;22.90;9.70;;;;;;;29.70;30.39;100391.66;5033023;28;20052;-69
2022/08/25 02:27:28;;;;;;;19.13;7.43;;;;;;;29.56;30.22;100406.88;5049988;28;20064;-68
2022/08/25 02:29:54;;;;;;;25.50;9.00;;;;;;;29.38;30.41;100402.63;5032983;28;20083;-68
2022/08/25 02:32:20;;;;;;;23.80;8.25;;;;;;;29.43;30.97;100401.88;5016703;28;20049;-68
2022/08/25 02:34:46;;;;;;;15.00;6.50;;;;;;;29.38;28.25;100408.09;5032863;28;20064;-68
2022/08/25 02:37:12;;;;;;;16.52;6.53;;;;;;;29.28;28.46;100404.47;5050681;28;20041;-68
2022/08/25 02:39:38;;;;;;;23.90;9.15;;;;;;;29.28;31.47;100394.34;5016302;28;20499;-68
2022/08/25 02:42:04;;;;;;;23.10;7.45;;;;;;;29.12;31.21;100400.78;5016202;28;20143;-68
2022/08/25 02:44:30;;;;;;;17.35;6.40;;;;;;;29.03;30.30;100404.22;5033046;28;20048;-68
2022/08/25 02:46:56;;;;;;;28.95;9.27;;;;;;;29.00;31.65;100400.09;5016493;28;20504;-68
2022/08/25 02:49:23;;;;;;;28.65;8.98;;;;;;;28.97;32.04;100403.34;5049195;28;20393;-68
2022/08/25 02:51:48;;;;;;;17.17;6.22;;;;;;;28.90;29.75;100394.53;5032673;28;20056;-69
2022/08/25 02:54:15;;;;;;;16.30;6.63;;;;;;;29.02;29.31;100399.81;5032602;28;20053;-69
2022/08/25 02:56:41;;;;;;;16.58;5.82;;;;;;;29.08;28.29;100393.34;5049322;28;20048;-68
2022/08/25 02:59:08;;;;;;;15.15;7.05;;;;;;;29.26;29.62;100396.53;5016530;28;20118;-68
2022/08/25 03:01:33;;;;;;;20.58;6.50;;;;;;;29.30;28.41;100392.19;5015743;28;20059;-68
2022/08/25 03:04:00;;;;;;;22.25;7.03;;;;;;;29.31;29.06;100404.78;5049802;28;20041;-69
2022/08/25 03:06:26;;;;;;;19.25;6.47;;;;;;;29.25;29.19;100405.81;5049099;28;20045;-69
2022/08/25 03:08:52;;;;;;;17.15;6.45;;;;;;;29.26;29.23;100402.00;5049019;28;20381;-70
2022/08/25 03:11:18;;;;;;;19.08;6.32;;;;;;;29.26;28.52;100402.00;5016167;28;20041;-69
2022/08/25 03:13:45;;;;;;;29.75;9.60;;;;;;;29.34;30.56;100392.47;5016044;28;20049;-69
2022/08/25 03:16:11;;;;;;;16.67;7.03;;;;;;;29.31;29.21;100393.81;5032424;28;20079;-69
2022/08/25 03:18:38;;;;;;;16.48;6.63;;;;;;;29.39;28.02;100389.78;4999624;28;20523;-69
2022/08/25 03:21:03;;;;;;;17.92;7.13;;;;;;;29.38;28.74;100401.81;5032068;28;20048;-69
2022/08/25 03:23:29;;;;;;;21.17;7.35;;;;;;;29.35;29.81;100405.09;5051908;28;20420;-70
2022/08/25 03:28:42;;;;;;;13.05;6.60;;;;;;;29.37;28.04;100386.47;5038739;28;20115;-69
2022/08/25 03:31:09;;;;;;;26.67;7.45;;;;;;;29.47;28.09;100392.03;5036448;28;20483;-70
2022/08/25 03:33:35;;;;;;;21.90;6.03;;;;;;;29.42;27.78;100411.16;5019699;28;20052;-69
2022/08/25 03:36:04;;;;;;;18.42;6.45;;;;;;;29.50;28.16;100399.72;5052838;28;20040;-69
2022/08/25 03:38:32;;;;;;;27.02;6.53;;;;;;;29.36;27.58;100396.63;5036512;28;20041;-69
2022/08/25 03:40:58;;;;;;;14.23;6.03;;;;;;;29.24;27.67;100406.91;5052574;28;20049;-70
2022/08/25 03:43:24;;;;;;;22.85;8.43;;;;;;;28.98;28.54;100383.13;5019369;28;20468;-69
2022/08/25 03:45:49;;;;;;;13.57;6.13;;;;;;;29.02;28.10;100381.50;5035848;28;20045;-70
2022/08/25 03:48:16;;;;;;;19.02;6.10;;;;;;;29.20;28.07;100394.03;5019126;28;20033;-70
2022/08/25 03:50:50;;;;;;;22.15;6.40;;;;;;;29.38;27.70;100397.16;5019472;28;20131;-69
2022/08/25 03:53:17;;;;;;;12.65;6.13;;;;;;;29.27;27.63;100405.56;5019293;28;20041;-69
2022/08/25 03:55:42;;;;;;;16.73;5.93;;;;;;;29.00;27.86;100386.41;5035439;28;20072;-69
2022/08/25 03:58:08;;;;;;;10.35;5.40;;;;;;;29.14;27.73;100404.09;4986615;28;20504;-69
2022/08/25 04:00:34;;;;;;;20.17;6.13;;;;;;;29.29;27.48;100401.47;5019327;28;20470;-69
2022/08/25 04:03:00;;;;;;;13.35;6.05;;;;;;;29.26;27.66;100399.25;5052564;28;20132;-69
2022/08/25 04:05:26;;;;;;;18.42;5.72;;;;;;;29.24;27.85;100398.72;5052062;28;20103;-70
2022/08/25 04:07:51;;;;;;;12.05;6.13;;;;;;;29.34;27.51;100387.84;5002434;28;20063;-70
2022/08/25 04:10:17;;;;;;;13.18;5.82;;;;;;;29.46;27.23;100391.19;5052040;28;20056;-71
2022/08/25 04:12:43;;;;;;;11.60;5.60;;;;;;;29.45;27.19;100395.03;5002667;28;20048;-70
2022/08/25 04:15:09;;;;;;;11.40;6.05;;;;;;;29.49;27.31;100387.13;5018908;28;20049;-70
2022/08/25 04:17:37;;;;;;;14.30;6.00;;;;;;;29.37;27.65;100386.47;5002686;28;20496;-70
2022/08/25 04:20:04;;;;;;;9.88;5.70;;;;;;;29.38;27.44;100379.94;5035654;28;20045;-70
2022/08/25 04:22:30;;;;;;;16.10;6.10;;;;;;;29.30;27.60;100374.94;5018608;28;20136;-69
2022/08/25 04:24:58;;;;;;;17.67;6.38;;;;;;;29.31;28.03;100365.63;5051385;28;20040;-69
2022/08/25 04:27:24;;;;;;;9.02;6.60;;;;;;;29.22;27.74;100370.78;5035094;28;20060;-69
2022/08/25 04:29:50;;;;;;;11.05;5.90;;;;;;;29.25;27.75;100366.69;5051482;28;20048;-69
2022/08/25 04:32:15;;;;;;;12.48;5.88;;;;;;;29.40;27.44;100373.09;5018472;28;20478;-69
2022/08/25 04:34:42;;;;;;;10.52;6.55;;;;;;;29.55;27.43;100369.66;5034422;28;20120;-69
2022/08/25 04:37:08;;;;;;;13.20;5.80;;;;;;;29.64;27.37;100362.63;5034847;28;20179;-69
2022/08/25 04:39:34;;;;;;;16.67;6.97;;;;;;;29.66;27.75;100357.72;5002244;28;20119;-68
2022/08/25 04:42:00;;;;;;;17.70;6.68;;;;;;;29.77;27.19;100356.66;5018178;28;20038;-68
2022/08/25 04:44:26;;;;;;;12.43;6.28;;;;;;;29.69;27.25;100359.06;5051171;28;20049;-69
2022/08/25 04:46:52;;;;;;;14.23;6.22;;;;;;;29.77;26.86;100366.78;5051147;28;20045;-69
2022/08/25 04:49:18;;;;;;;12.65;5.97;;;;;;;29.84;26.68;100370.09;5018227;28;20051;-70
2022/08/25 04:51:45;;;;;;;15.80;6.07;;;;;;;29.97;26.56;100366.91;5017728;28;20059;-69
2022/08/25 04:54:15;;;;;;;14.25;6.07;;;;;;;30.03;26.50;100363.91;5052028;28;20400;-70
2022/08/25 04:56:41;;;;;;;12.88;5.57;;;;;;;30.15;26.48;100360.94;5051151;28;20047;-69
2022/08/25 04:59:12;;;;;;;9.98;5.95;;;;;;;30.29;26.39;100362.94;5013299;28;20041;-69
2022/08/25 05:01:41;;;;;;;14.40;6.32;;;;;;;30.23;26.55;100365.94;5033095;28;20099;-69
2022/08/25 05:04:08;;;;;;;13.35;6.38;;;;;;;30.38;26.63;100368.72;5033924;28;20041;-69
2022/08/25 05:06:34;;;;;;;15.90;6.68;;;;;;;30.48;26.29;100366.00;5016153;28;20063;-68
2022/08/25 05:09:02;;;;;;;23.33;7.10;;;;;;;30.49;26.61;100367.66;4999497;28;20129;-69
2022/08/25 05:11:28;;;;;;;17.67;7.13;;;;;;;30.65;26.70;100363.84;5049183;28;20060;-69
2022/08/25 05:13:55;;;;;;;13.23;6.63;;;;;;;30.72;27.21;100365.22;5016645;28;20040;-69
2022/08/25 05:16:23;;;;;;;14.77;7.53;;;;;;;30.86;26.76;100369.13;5000348;28;20098;-69
2022/08/25 05:18:49;;;;;;;14.75;7.53;;;;;;;30.77;27.29;100364.44;5016649;28;20071;-69
2022/08/25 05:21:17;;;;;;;17.33;7.47;;;;;;;30.96;27.32;100362.81;5032488;28;20053;-69
2022/08/25 05:23:44;;;;;;;23.30;8.30;;;;;;;31.06;27.38;100362.84;5016554;28;20041;-68
2022/08/25 05:26:19;;;;;;;23.95;7.50;;;;;;;31.25;27.68;100361.19;4999383;28;20471;-69
2022/08/25 05:28:47;;;;;;;25.08;7.95;;;;;;;31.17;27.63;100357.06;5032913;28;20056;-69
2022/08/25 05:31:13;;;;;;;16.88;6.95;;;;;;;31.20;26.89;100350.19;5032214;28;20565;-70
2022/08/25 05:33:40;;;;;;;17.67;7.43;;;;;;;31.27;26.91;100341.69;5017144;28;20049;-70
2022/08/25 05:36:10;;;;;;;18.45;8.35;;;;;;;31.40;26.64;100360.38;5050432;28;20427;-70
2022/08/25 05:38:38;;;;;;;20.88;7.60;;;;;;;31.29;26.47;100355.97;5017033;28;20040;-70
2022/08/25 05:41:11;;;;;;;14.15;7.43;;;;;;;31.26;26.50;100360.06;5049856;28;20040;-69
2022/08/25 05:43:39;;;;;;;17.83;7.45;;;;;;;31.35;25.77;100363.13;5050329;28;20504;-70
2022/08/25 05:46:05;;;;;;;13.82;6.32;;;;;;;31.31;25.25;100348.31;4999677;28;20048;-69
2022/08/25 05:48:33;;;;;;;13.20;5.75;;;;;;;31.54;25.02;100362.25;5032424;28;20037;-71
2022/08/25 05:51:01;;;;;;;16.27;6.88;;;;;;;31.50;25.26;100366.69;4999203;28;20053;-66
2022/08/25 05:53:28;;;;;;;13.77;6.55;;;;;;;31.26;25.12;100353.78;5049238;28;20045;-66
2022/08/25 05:55:56;;;;;;;14.00;6.15;;;;;;;30.96;25.38;100351.84;5050313;28;20053;-67
2022/08/25 05:58:23;;;;;;;17.70;6.10;;;;;;;30.72;26.30;100346.03;5048011;28;20484;-67
2022/08/25 06:00:50;;;;;;;13.65;6.28;;;;;;;30.63;26.71;100352.34;5046953;28;20060;-67
2022/08/25 06:03:16;;;;;;;16.15;6.20;;;;;;;30.55;26.84;100352.88;5048005;28;20040;-67
2022/08/25 06:05:42;;;;;;;21.02;7.35;;;;;;;30.60;26.84;100348.22;5030628;28;20114;-67
2022/08/25 06:08:10;;;;;;;16.63;6.40;;;;;;;30.73;26.90;100349.59;5048332;28;20041;-66
2022/08/25 06:10:36;;;;;;;13.68;6.25;;;;;;;30.83;27.05;100350.47;5031648;28;20071;-67
2022/08/25 06:13:03;;;;;;;14.02;6.10;;;;;;;30.91;26.36;100351.84;5031481;28;20514;-66
2022/08/25 06:15:29;;;;;;;12.40;5.45;;;;;;;30.96;25.66;100354.59;5049034;28;20044;-67
2022/08/25 06:17:57;;;;;;;16.27;6.97;;;;;;;31.07;26.24;100353.50;5048958;28;20174;-67
2022/08/25 06:20:26;;;;;;;12.05;6.30;;;;;;;31.27;26.03;100353.50;5049580;28;20044;-67
2022/08/25 06:22:52;;;;;;;28.48;6.70;;;;;;;31.31;26.46;100354.63;5015546;28;20041;-69
2022/08/25 06:25:21;;;;;;;23.05;6.80;;;;;;;31.51;26.82;100354.59;5015598;28;20037;-66
2022/08/25 06:27:47;;;;;;;21.52;6.57;;;;;;;31.53;26.50;100357.06;5050158;28;20045;-66
2022/08/25 06:30:19;;;;;;;20.83;6.43;;;;;;;31.73;25.63;100352.34;5048446;28;20037;-67
2022/08/25 06:32:46;;;;;;;20.00;6.47;;;;;;;31.76;25.84;100349.03;5032086;28;20075;-67
2022/08/25 06:35:15;;;;;;;10.15;5.75;;;;;;;32.11;25.11;100354.44;5015645;28;20045;-67
2022/08/25 06:37:41;;;;;;;15.73;5.30;;;;;;;32.32;24.69;100364.22;5032326;28;20036;-67
2022/08/25 06:40:08;;;;;;;19.63;6.60;;;;;;;32.60;24.13;100359.97;5048560;28;20496;-67
2022/08/25 06:42:34;;;;;;;14.07;6.22;;;;;;;32.71;24.01;100363.50;5031633;28;20124;-67
2022/08/25 06:45:00;;;;;;;9.63;5.20;;;;;;;32.87;23.00;100359.50;5032003;28;20139;-66
2022/08/25 06:47:26;;;;;;;17.05;6.63;;;;;;;32.93;23.42;100339.94;5031802;28;20049;-67
2022/08/25 06:49:51;;;;;;;15.45;5.55;;;;;;;33.20;23.01;100358.72;5031908;28;20045;-67
2022/08/25 06:52:17;;;;;;;14.30;5.57;;;;;;;33.36;22.59;100354.72;5031535;28;20415;-76
2022/08/25 06:54:43;;;;;;;10.95;5.38;;;;;;;33.43;21.59;100355.25;5048133;28;20102;-77
2022/08/25 06:57:09;;;;;;;20.13;5.38;;;;;;;33.91;21.59;100354.16;4999310;28;20051;-71
2022/08/25 06:59:35;;;;;;;13.00;5.10;;;;;;;34.46;20.99;100355.44;5047967;28;20051;-70
2022/08/25 07:02:02;;;;;;;14.80;5.05;;;;;;;35.08;19.67;100349.50;5010290;28;20072;-71
2022/08/25 07:04:28;;;;;;;10.32;4.95;;;;;;;35.43;19.37;100348.91;4995588;28;20056;-71
2022/08/25 07:06:54;;;;;;;22.30;5.75;;;;;;;35.83;19.15;100348.16;4995763;28;20038;-70
2022/08/25 07:09:20;;;;;;;13.63;5.38;;;;;;;36.10;18.86;100355.63;4979220;28;20497;-70
2022/08/25 07:11:46;;;;;;;15.75;5.78;;;;;;;36.39;18.36;100345.06;4983016;28;20038;-70
2022/08/25 07:14:15;;;;;;;18.58;6.18;;;;;;;36.81;18.54;100347.44;4995766;28;20619;-70
2022/08/25 07:16:41;;;;;;;21.05;6.80;;;;;;;37.04;18.37;100349.06;5012537;28;20052;-70
2022/08/25 07:19:07;;;;;;;15.32;5.55;;;;;;;37.36;18.35;100346.03;5011682;28;20057;-71
2022/08/25 07:21:35;;;;;;;14.43;5.53;;;;;;;37.64;18.76;100350.28;5011353;28;20053;-69
2022/08/25 07:24:04;;;;;;;26.67;5.93;;;;;;;37.85;18.35;100344.97;5028291;28;20053;-70
2022/08/25 07:26:33;;;;;;;22.63;6.30;;;;;;;38.00;18.19;100347.31;5011719;28;20068;-70
2022/08/25 07:29:00;;;;;;;16.70;5.13;;;;;;;38.29;17.75;100347.59;4995241;28;20389;-70
2022/08/25 07:31:26;;;;;;;20.55;6.13;;;;;;;38.61;17.27;100345.19;4994816;28;20075;-71
2022/08/25 07:36:37;;;;;;;18.60;5.53;;;;;;;39.61;15.48;100329.06;5014314;28;20492;-70
2022/08/25 07:39:04;;;;;;;14.40;5.90;;;;;;;40.06;15.39;100341.28;4995005;28;20049;-71
2022/08/25 07:41:34;;;;;;;22.40;5.78;;;;;;;41.36;14.52;100347.16;4978867;28;20136;-75
2022/08/25 07:44:00;;;;;;;27.52;5.47;;;;;;;43.79;12.93;100330.31;4979180;28;20047;-71
2022/08/25 07:46:28;;;;;;;20.08;5.07;;;;;;;46.46;9.90;100343.25;5011408;28;20045;-71
2022/08/25 07:48:54;;;;;;;28.95;5.50;;;;;;;49.06;9.19;100337.97;4994509;28;20046;-71
2022/08/25 07:51:20;;;;;;;23.83;5.90;;;;;;;51.19;7.89;100338.13;5046068;28;20055;-70
2022/08/25 07:53:45;;;;;;;27.70;5.18;;;;;;;52.74;6.14;100331.84;5014722;28;20135;-71
2022/08/25 07:56:13;;;;;;;34.30;5.57;;;;;;;53.42;6.13;100334.09;5014082;28;20495;-72
2022/08/25 07:58:42;;;;;;;31.73;5.22;;;;;;;54.31;5.82;100325.66;4999084;28;20041;-72
2022/08/25 08:01:19;;;;;;;22.88;5.20;;;;;;;55.71;5.04;100321.66;5049068;28;20057;-72
2022/08/25 08:03:46;;;;;;;21.33;5.22;;;;;;;56.46;4.40;100324.09;4998074;28;20037;-72
2022/08/25 08:06:15;;;;;;;22.90;4.43;;;;;;;57.03;4.30;100318.28;5031148;28;20044;-72
2022/08/25 08:08:44;;;;;;;20.02;4.50;;;;;;;57.79;3.48;100310.44;5032483;28;20439;-71
2022/08/25 08:11:22;;;;;;;19.17;4.15;;;;;;;59.08;3.08;100321.13;5017634;28;20134;-71
2022/08/25 08:13:50;;;;;;;26.92;4.85;;;;;;;59.95;2.61;100315.78;5050690;28;20053;-72
2022/08/25 08:16:17;;;;;;;20.27;3.95;;;;;;;60.86;1.87;100302.09;5034559;28;20527;-73
2022/08/25 08:18:51;;;;;;;18.02;3.90;;;;;;;61.75;1.69;100300.84;5050863;28;20488;-73
2022/08/25 08:21:18;;;;;;;14.40;3.50;;;;;;;61.97;1.81;100293.97;5001571;28;20133;-72
2022/08/25 08:23:44;;;;;;;13.70;4.00;;;;;;;62.07;1.67;100293.41;5034125;28;20072;-74
2022/08/25 08:26:10;;;;;;;16.27;3.40;;;;;;;61.68;1.53;100283.16;5034620;28;20130;-72
2022/08/25 08:28:36;;;;;;;16.45;3.60;;;;;;;61.09;1.47;100276.31;5013857;28;20052;-71
2022/08/25 08:31:02;;;;;;;12.85;3.22;;;;;;;60.58;1.49;100278.41;4981668;28;20045;-72
2022/08/25 08:33:28;;;;;;;19.00;4.00;;;;;;;60.42;1.64;100273.06;4981744;28;20045;-78
2022/08/25 08:36:00;;;;;;;21.17;3.28;;;;;;;60.70;1.57;100277.44;4998008;28;20064;-69
2022/08/25 08:38:26;;;;;;;12.63;3.30;;;;;;;61.02;1.32;100268.06;4997784;28;20432;-71
2022/08/25 08:44:36;;;;;;;23.13;3.60;;;;;;;61.85;1.07;100276.47;5030992;28;20133;-73
2022/08/25 08:48:01;;;;;;;13.07;3.28;;;;;;;60.07;1.24;100260.31;5000866;28;20060;-72
2022/08/25 08:50:44;;;;;;;12.05;3.22;;;;;;;60.20;1.16;100246.59;5039978;28;20583;-70
2022/08/25 08:53:15;;;;;;;11.65;3.00;;;;;;;61.41;1.19;100246.75;5012620;28;20056;-73
2022/08/25 08:55:54;;;;;;;12.35;3.10;;;;;;;61.52;0.99;100249.09;5011245;28;20038;-72
2022/08/25 08:58:29;;;;;;;10.85;2.92;;;;;;;61.72;0.79;100250.03;5013360;28;20041;-70
2022/08/25 09:00:57;;;;;;;13.40;3.40;;;;;;;61.04;0.85;100244.59;5013091;28;20457;-71
2022/08/25 09:03:41;;;;;;;;;;;;;;;60.77;0.98;100241.81;5014252;28;20080;-69
2022/08/25 09:06:20;;;;;;;11.10;2.70;;;;;;;60.59;1.50;100236.94;5030236;28;19942;-70
2022/08/25 09:08:46;;;;;;;11.80;2.95;;;;;;;60.21;1.55;100237.50;5030161;28;20504;-70
2022/08/25 09:11:36;;;;;;;9.77;2.88;;;;;;;60.01;1.10;100231.44;5027411;28;20072;-69
2022/08/25 09:14:38;;;;;;;11.05;2.72;;;;;;;61.00;0.83;100224.63;5014069;28;20049;-70
2022/08/25 09:17:39;;;;;;;11.88;2.63;;;;;;;61.87;0.20;100233.63;4992466;28;20132;-70
2022/08/25 09:20:05;;;;;;;13.95;2.70;;;;;;;62.24;0.75;100231.16;4986113;28;20076;-70
2022/08/25 09:22:43;;;;;;;3.10;1.90;;;;;;;62.20;0.00;100230.59;5013160;28;20060;-71
2022/08/25 09:25:15;;;;;;;;;;;;;;;62.38;0.00;100230.38;5030091;28;20060;-72
2022/08/25 09:28:00;;;;;;;5.95;1.92;;;;;;;63.54;0.00;100237.16;5030576;28;19921;-70
2022/08/25 09:30:26;;;;;;;3.47;1.60;;;;;;;64.55;0.00;100226.94;5029324;28;20045;-71
2022/08/25 09:33:02;;;;;;;7.35;2.03;;;;;;;65.43;0.00;100224.63;4996927;28;20041;-72
2022/08/25 09:35:33;;;;;;;8.18;2.20;;;;;;;66.00;0.00;100221.38;5013984;28;20049;-71
2022/08/25 09:38:00;;;;;;;9.10;2.30;;;;;;;65.93;0.00;100221.91;4980748;28;20139;-72
2022/08/25 09:40:29;;;;;;;8.43;2.53;;;;;;;66.06;0.00;100216.41;5029398;28;20088;-72
2022/08/25 09:42:57;;;;;;;7.90;2.15;;;;;;;66.29;0.00;100214.31;4980395;28;20092;-69
2022/08/25 09:45:45;;;;;;;13.68;2.20;;;;;;;65.78;0.00;100209.75;4996424;28;20045;-70
2022/08/25 09:48:23;;;;;;;6.15;2.10;;;;;;;65.62;0.00;100196.03;5046238;28;20064;-70
2022/08/25 09:50:50;;;;;;;4.30;1.90;;;;;;;65.92;0.00;100197.16;5029424;28;20048;-71
2022/08/25 09:53:17;;;;;;;5.20;1.92;;;;;;;66.34;0.00;100196.94;4996250;28;20633;-73
2022/08/25 09:55:46;;;;;;;7.65;1.98;;;;;;;66.69;0.00;100197.16;5017473;28;20048;-73
2022/08/25 09:58:22;;;;;;;8.50;2.20;;;;;;;67.06;0.00;100197.63;5001611;28;20523;-71
2022/08/25 10:01:10;;;;;;;3.65;1.73;;;;;;;65.93;0.00;100172.69;5036447;28;20055;-72
2022/08/25 10:03:35;;;;;;;8.40;1.65;;;;;;;63.79;0.00;100172.94;5038762;28;20044;-71
2022/08/25 10:06:21;;;;;;;5.90;1.80;;;;;;;62.42;0.00;100170.50;5006506;28;20096;-71
2022/08/25 10:08:47;;;;;;;5.80;1.75;;;;;;;61.44;0.10;100161.59;4988881;28;20041;-72
2022/08/25 10:11:32;;;;;;;4.20;1.95;;;;;;;57.88;1.33;100141.78;5036821;28;20049;-72
2022/08/25 10:14:05;;;;;;;6.00;2.10;;;;;;;57.22;1.42;100145.81;5037643;28;20044;-70
2022/08/25 10:16:31;;;;;;;4.03;2.22;;;;;;;56.49;1.76;100134.78;5014072;28;20037;-70
2022/08/25 10:19:07;;;;;;;5.72;2.38;;;;;;;54.96;2.60;100130.25;5003844;28;20520;-71
2022/08/25 10:21:35;;;;;;;4.57;2.40;;;;;;;54.77;2.37;100131.09;5006352;28;20108;-70
2022/08/25 10:24:01;;;;;;;6.95;2.70;;;;;;;53.78;3.17;100131.72;4996584;28;20132;-71
2022/08/25 10:26:48;;;;;;;9.65;2.97;;;;;;;54.18;3.14;100124.75;5010765;28;20056;-70
2022/08/25 10:29:39;;;;;;;10.43;2.97;;;;;;;55.42;2.20;100135.53;5036274;28;20091;-70
2022/08/25 10:32:20;;;;;;;5.88;2.80;;;;;;;56.80;1.89;100141.53;5012759;28;20061;-70
2022/08/25 10:34:57;;;;;;;5.68;2.80;;;;;;;57.43;1.48;100135.69;5015267;28;20041;-71
2022/08/25 10:37:42;;;;;;;9.70;3.15;;;;;;;57.18;1.73;100135.75;4999467;28;20071;-70
2022/08/25 10:40:22;;;;;;;7.32;3.10;;;;;;;55.22;2.47;100137.72;5015325;28;20444;-70
2022/08/25 10:43:18;;;;;;;10.20;3.10;;;;;;;54.67;2.98;100117.94;5015428;28;20053;-70
2022/08/25 10:46:00;;;;;;;9.50;2.78;;;;;;;55.22;2.31;100117.75;4998344;28;20195;-70
2022/08/25 10:48:54;;;;;;;4.78;2.83;;;;;;;54.58;2.83;100114.91;5015051;28;20049;-69
2022/08/25 10:52:07;;;;;;;5.40;2.75;;;;;;;53.06;3.41;100105.84;5031689;28;20048;-69
2022/08/25 10:54:49;;;;;;;9.18;3.33;;;;;;;51.10;4.73;100097.13;4997406;28;20041;-70
2022/08/25 10:57:36;;;;;;;8.63;3.67;;;;;;;52.05;4.16;100102.56;4981276;28;20045;-69
2022/08/25 11:00:22;;;;;;;5.65;3.30;;;;;;;52.27;3.80;100103.06;5026448;28;20090;-70
2022/08/25 11:02:52;;;;;;;9.82;3.63;;;;;;;52.99;3.80;100105.97;5031934;28;20048;-69
2022/08/25 11:05:35;;;;;;;11.80;3.78;;;;;;;52.84;4.23;100098.91;5031366;28;20041;-70
2022/08/25 11:08:07;;;;;;;13.32;5.20;;;;;;;54.05;3.71;100101.06;5031594;28;20068;-70
2022/08/25 11:10:47;;;;;;;10.68;3.53;;;;;;;54.68;2.78;100094.72;5031447;28;20063;-70
2022/08/25 11:13:21;;;;;;;10.15;3.42;;;;;;;55.60;2.84;100098.78;5014446;28;20187;-71
2022/08/25 11:16:10;;;;;;;10.73;2.90;;;;;;;56.47;2.05;100105.13;5028042;28;20052;-71
2022/08/25 11:18:43;;;;;;;7.10;3.05;;;;;;;57.18;1.74;100098.59;5035738;28;20044;-70
2022/08/25 11:21:13;;;;;;;11.07;3.10;;;;;;;57.52;1.77;100081.44;5011647;28;20037;-71
2022/08/25 11:23:43;;;;;;;7.30;3.20;;;;;;;57.11;2.02;100084.56;4995899;28;20046;-70
2022/08/25 11:26:12;;;;;;;11.25;3.40;;;;;;;55.60;2.67;100075.97;5011960;28;20378;-70
2022/08/25 11:29:00;;;;;;;9.38;3.05;;;;;;;54.45;3.07;100066.41;5011396;28;20038;-69
2022/08/25 11:31:26;;;;;;;12.25;3.45;;;;;;;53.39;3.47;100067.13;4983389;28;20049;-69
2022/08/25 11:33:53;;;;;;;5.82;3.10;;;;;;;52.33;3.82;100064.50;5021808;28;20480;-70
2022/08/25 11:36:31;;;;;;;10.63;3.00;;;;;;;51.00;4.42;100047.88;5006941;28;20068;-69
2022/08/25 11:39:12;;;;;;;;;;;;;;;49.60;5.54;100057.22;5006966;28;20045;-71
2022/08/25 11:41:59;;;;;;;14.63;4.00;;;;;;;48.19;5.64;100042.38;4988476;28;19927;-69
2022/08/25 11:45:07;;;;;;;4.85;3.20;;;;;;;46.95;6.64;100057.81;5029469;28;20041;-70